Aeroporto :
LOGIN :

Iscrizione | Disclaimer

   EN    FR    IT 

 










Sommario :    VFR   VFR Marginale   IFR   IFR Intensivo   IFR Molto Intensivo
Visibilità : 
Base nubi : 
>= 8 km
>= 3000ft
5 / 8 km
1000 / 3000 ft
1500m / 5 km
500 / 1000 ft
800 / 1500m
200 / 500 ft
< 800m
< 200 ft
Simboli :   Temporali  Nebbia  Neve Forte  Precipitazioni Forti  Vento > 20 kt
SIGMETs :   Varie  Temporali  Ghiacco  Turbolenza  Onda orograficha  Ceneri Vulcaniche






- Altitudine del aeroporto : 465 ft
- Codice IATA : LEJ


EDDP - Leipzig Halle

ULTIMO METAR :
  • 251520Z 26017KT CAVOK 09/M01 Q0996 TEMPO 26020G30KT

METARs OBSOLETI :
  • 251450Z 25023KT CAVOK 10/01 Q0996 TEMPO 25020G30KT
  • 251420Z 25021KT 9999 SCT040 11/01 Q0996 TEMPO 25020G30KT
  • 251350Z 25024KT 9999 BKN037 11/03 Q0996 TEMPO 25020G30KT
  • 251320Z 25020KT 9999 SCT030 11/04 Q0996 TEMPO 25020G30KT
  • 251250Z 24021KT 9999 SCT030 SCT049 10/05 Q0997 TEMPO 24020G30KT

TAF AMD TAF EDDP
Valido dal 25 a 14 ore il 26 a 12 ore UTC


251448Z 2514/2612 25020KT 9999 SCT045
TEMPO 2514/2517 25015G30KT
BECMG 2515/2518 23012KT
BECMG 2607/2610 25015G25KT



MetMap, La meteo Aeronautica in un colpo d'occhio ! - Copyright ORBIFLY Dicembre 2007 - Disclaimer

ORBIFLY MET'MAP TEAM :

Programmazione e sviluppo : Alexandra Zaïnal
Concezione : Baudouin d'Aumeries
Aiuto per la programmazione : Marc-Olivier Méhu
Supporto tecnico e logistico : Manuel Goepfert
Aiuto per la traduzione : Arnaldo La Scala

Contatto : metmap@orbifly.com




FONTI E CREDITI :

   NOAA